createdAt,value
2019-04-26T00:02:26.886Z,57.20
2019-04-26T00:04:57.931Z,57.41
2019-04-26T00:07:25.715Z,57.47
2019-04-26T00:09:55.166Z,58.53
2019-04-26T00:12:42.578Z,59.10
2019-04-26T00:15:24.888Z,60.57
2019-04-26T00:17:55.295Z,60.96
2019-04-26T00:20:23.343Z,61.15
2019-04-26T00:22:51.329Z,60.41
2019-04-26T00:25:20.166Z,60.72
2019-04-26T00:27:47.937Z,60.59
2019-04-26T00:30:16.999Z,60.68
2019-04-26T00:32:45.044Z,60.45
2019-04-26T00:35:14.006Z,60.50
2019-04-26T00:37:42.036Z,60.41
2019-04-26T00:40:10.173Z,60.34
2019-04-26T00:42:38.355Z,60.19
2019-04-26T00:45:06.595Z,60.74
2019-04-26T00:47:35.910Z,61.73
2019-04-26T00:50:06.230Z,60.78
2019-04-26T00:52:34.874Z,61.36
2019-04-26T00:55:03.606Z,60.62
2019-04-26T00:57:34.198Z,60.23
2019-04-26T01:00:03.000Z,61.46
2019-04-26T01:02:36.859Z,61.06
2019-04-26T01:05:05.019Z,62.04
2019-04-26T01:07:33.108Z,62.10
2019-04-26T01:10:00.999Z,63.03
2019-04-26T01:12:28.970Z,62.12
2019-04-26T01:14:56.898Z,61.58
2019-04-26T01:17:24.950Z,61.60
2019-04-26T01:19:54.606Z,61.59
2019-04-26T01:22:27.609Z,61.97
2019-04-26T01:24:56.700Z,61.12
2019-04-26T01:27:27.870Z,61.05
2019-04-26T01:29:59.619Z,61.98
2019-04-26T01:32:29.470Z,61.99
2019-04-26T01:34:57.780Z,62.14
2019-04-26T01:37:26.715Z,62.25
2019-04-26T01:40:00.628Z,62.62
2019-04-26T01:42:42.594Z,62.58
2019-04-26T01:45:21.779Z,62.02
2019-04-26T01:47:53.447Z,62.50
2019-04-26T01:50:25.339Z,62.28
2019-04-26T01:52:54.328Z,62.28
2019-04-26T01:55:23.531Z,62.65
2019-04-26T01:57:54.171Z,61.96
2019-04-26T02:00:32.636Z,62.29
2019-04-26T02:03:04.789Z,62.26
2019-04-26T02:05:32.802Z,62.46
2019-04-26T02:08:00.848Z,61.90
2019-04-26T02:10:28.820Z,62.50
2019-04-26T02:12:57.595Z,62.65
2019-04-26T02:15:29.364Z,62.30
2019-04-26T02:17:58.822Z,62.31
2019-04-26T02:20:55.823Z,62.84
2019-04-26T02:23:30.311Z,62.26
2019-04-26T02:26:17.752Z,62.24
2019-04-26T02:28:47.364Z,61.89
2019-04-26T02:31:16.277Z,62.39
2019-04-26T02:33:44.398Z,62.04
2019-04-26T02:36:12.692Z,62.04
2019-04-26T02:38:40.814Z,62.79
2019-04-26T02:41:09.019Z,62.01
2019-04-26T02:43:39.913Z,62.50
2019-04-26T02:46:15.897Z,62.31
2019-04-26T02:49:23.259Z,62.10
2019-04-26T02:51:59.763Z,62.14
2019-04-26T02:54:52.971Z,62.18
2019-04-26T02:57:29.205Z,62.18
2019-04-26T03:00:11.560Z,62.56
2019-04-26T03:02:40.530Z,62.45
2019-04-26T03:05:09.651Z,62.32
2019-04-26T03:08:05.960Z,62.35
2019-04-26T03:10:54.085Z,62.16
2019-04-26T03:13:51.312Z,62.20
2019-04-26T03:16:51.085Z,62.52
2019-04-26T03:19:41.069Z,61.77
2019-04-26T03:22:26.667Z,61.94
2019-04-26T03:25:04.524Z,61.59
2019-04-26T03:28:14.538Z,61.93
2019-04-26T03:31:20.185Z,62.00
2019-04-26T03:34:27.828Z,62.00
2019-04-26T03:37:44.634Z,62.40
2019-04-26T03:40:28.848Z,62.78
2019-04-26T03:43:47.307Z,63.25
2019-04-26T03:46:37.069Z,62.80
2019-04-26T03:49:30.029Z,62.54
2019-04-26T03:52:43.513Z,62.71
2019-04-26T03:56:08.087Z,63.47
2019-04-26T03:59:07.432Z,63.04
2019-04-26T04:01:46.270Z,62.80
2019-04-26T04:04:50.624Z,63.00
2019-04-26T04:07:35.931Z,62.76
2019-04-26T04:09:58.820Z,62.63
2019-04-26T04:12:42.234Z,62.15
2019-04-26T04:15:20.644Z,61.86
2019-04-26T04:18:04.039Z,61.82
2019-04-26T04:21:32.101Z,61.82
2019-04-26T04:24:51.386Z,62.05
2019-04-26T04:27:27.772Z,61.64
2019-04-26T04:30:14.758Z,61.52
2019-04-26T04:33:14.167Z,61.43
2019-04-26T04:35:55.651Z,61.60
2019-04-26T04:38:33.892Z,61.66
2019-04-26T04:41:17.947Z,61.64
2019-04-26T04:43:59.377Z,61.76
2019-04-26T04:47:33.694Z,61.88
2019-04-26T04:50:15.987Z,62.23
2019-04-26T04:52:54.955Z,62.04
2019-04-26T04:56:00.259Z,62.81
2019-04-26T04:58:36.493Z,62.52
2019-04-26T05:01:58.136Z,62.71
2019-04-26T05:05:03.939Z,62.72
2019-04-26T05:08:12.578Z,62.63
2019-04-26T05:10:49.850Z,62.85
2019-04-26T05:13:27.033Z,62.91
2019-04-26T05:16:33.150Z,62.29
2019-04-26T05:19:42.714Z,62.79
2019-04-26T05:22:57.667Z,62.07
2019-04-26T05:26:47.922Z,62.57
2019-04-26T05:30:21.615Z,62.61
2019-04-26T05:33:06.789Z,62.58
2019-04-26T05:36:11.256Z,62.58
2019-04-26T05:39:32.209Z,62.17
2019-04-26T05:43:12.122Z,61.46
2019-04-26T05:46:19.223Z,62.02
2019-04-26T05:49:18.739Z,61.95
2019-04-26T05:52:39.775Z,60.91
2019-04-26T05:55:59.696Z,60.85
2019-04-26T05:59:01.177Z,60.73
2019-04-26T06:02:05.010Z,60.40
2019-04-26T06:05:10.692Z,60.36
2019-04-26T06:08:31.632Z,60.36
2019-04-26T06:11:12.410Z,59.69
2019-04-26T06:14:43.280Z,59.69
2019-04-26T06:18:09.089Z,58.60
2019-04-26T06:20:44.063Z,58.60
2019-04-26T06:23:37.684Z,57.66
2019-04-26T06:27:11.033Z,57.49
2019-04-26T06:29:57.259Z,57.36
2019-04-26T06:32:37.480Z,57.90
2019-04-26T06:35:24.032Z,57.12
2019-04-26T06:39:05.782Z,56.57
2019-04-26T06:42:13.579Z,56.52
2019-04-26T06:45:44.415Z,55.83
2019-04-26T06:48:30.847Z,55.77
2019-04-26T06:51:24.037Z,56.09
2019-04-26T06:54:00.716Z,55.71
2019-04-26T06:56:46.060Z,55.46
2019-04-26T06:59:39.480Z,55.78
2019-04-26T07:02:25.527Z,55.00
2019-04-26T07:05:11.949Z,54.39
2019-04-26T07:08:06.805Z,54.22
2019-04-26T07:11:15.926Z,53.67
2019-04-26T07:14:08.673Z,53.24
2019-04-26T07:16:48.142Z,52.89
2019-04-26T07:19:52.256Z,52.60
2019-04-26T07:23:09.300Z,52.49
2019-04-26T07:26:21.281Z,52.64
2019-04-26T07:29:40.729Z,52.51
2019-04-26T07:32:27.598Z,52.00
2019-04-26T07:35:09.937Z,52.21
2019-04-26T07:38:09.017Z,51.66
2019-04-26T07:41:11.625Z,51.44
2019-04-26T07:44:11.889Z,51.17
2019-04-26T07:47:26.800Z,51.45
2019-04-26T07:50:40.844Z,50.97
2019-04-26T07:53:46.017Z,51.12
2019-04-26T07:56:37.773Z,50.60
2019-04-26T08:00:02.815Z,50.87
2019-04-26T08:02:56.545Z,50.23
2019-04-26T08:05:39.496Z,49.88
2019-04-26T08:08:10.858Z,49.48
2019-04-26T08:10:41.726Z,49.69
2019-04-26T08:13:13.845Z,49.39
2019-04-26T08:16:08.535Z,49.19
2019-04-26T08:18:45.870Z,48.88
2019-04-26T08:21:36.838Z,48.52
2019-04-26T08:24:32.399Z,48.38
2019-04-26T08:27:22.607Z,47.53
2019-04-26T08:29:47.207Z,47.61
2019-04-26T08:32:21.467Z,47.26
2019-04-26T08:34:57.580Z,46.98
2019-04-26T08:37:44.157Z,46.80
2019-04-26T08:40:16.392Z,46.93
2019-04-26T08:42:53.370Z,46.29
2019-04-26T08:45:45.603Z,45.56
2019-04-26T08:48:27.592Z,45.07
2019-04-26T08:50:58.199Z,43.77
2019-04-26T08:53:28.423Z,43.71
2019-04-26T08:56:00.310Z,43.90
2019-04-26T08:58:31.816Z,43.24
2019-04-26T09:01:18.629Z,42.79
2019-04-26T09:04:12.831Z,41.86
2019-04-26T09:07:09.776Z,42.24
2019-04-26T09:09:41.299Z,42.07
2019-04-26T09:12:23.021Z,42.06
2019-04-26T09:14:48.394Z,41.62
2019-04-26T09:17:16.432Z,41.22
2019-04-26T09:19:44.604Z,41.41
2019-04-26T09:22:22.678Z,40.86
2019-04-26T09:24:59.371Z,40.01
2019-04-26T09:27:35.741Z,39.31
2019-04-26T09:30:34.425Z,39.08
2019-04-26T09:33:22.457Z,39.19
2019-04-26T09:35:51.286Z,39.06
2019-04-26T09:38:19.105Z,38.48
2019-04-26T09:40:47.024Z,37.71
2019-04-26T09:43:21.467Z,38.27
2019-04-26T09:46:22.670Z,38.59
2019-04-26T09:49:07.154Z,37.91
2019-04-26T09:51:40.480Z,38.07
2019-04-26T09:54:08.294Z,37.77
2019-04-26T09:56:36.135Z,36.50
2019-04-26T09:59:05.556Z,36.87
2019-04-26T10:01:33.863Z,36.74
2019-04-26T10:04:01.723Z,36.32
2019-04-26T10:06:30.941Z,35.99
2019-04-26T10:08:59.118Z,35.55
2019-04-26T10:11:32.699Z,35.29
2019-04-26T10:14:10.259Z,36.16
2019-04-26T10:17:00.344Z,35.05
2019-04-26T10:19:43.753Z,35.44
2019-04-26T10:22:13.820Z,35.51
2019-04-26T10:24:41.804Z,34.84
2019-04-26T10:27:11.959Z,35.12
2019-04-26T10:29:40.042Z,34.26
2019-04-26T10:32:08.462Z,34.35
2019-04-26T10:34:36.351Z,32.89
2019-04-26T10:37:05.996Z,33.66
2019-04-26T10:39:36.891Z,34.03
2019-04-26T10:42:04.552Z,33.68
2019-04-26T10:44:35.644Z,33.14
2019-04-26T10:47:04.286Z,33.05
2019-04-26T10:49:41.482Z,33.23
2019-04-26T10:52:15.761Z,33.39
2019-04-26T10:54:47.532Z,33.21
2019-04-26T10:57:25.878Z,33.06
2019-04-26T10:59:58.447Z,32.69
2019-04-26T11:02:26.473Z,32.80
2019-04-26T11:04:54.242Z,33.19
2019-04-26T11:07:22.156Z,33.70
2019-04-26T11:09:50.433Z,33.48
2019-04-26T11:12:19.051Z,32.67
2019-04-26T11:14:47.018Z,32.53
2019-04-26T11:17:17.738Z,32.75
2019-04-26T11:19:45.904Z,32.78
2019-04-26T11:22:13.888Z,33.14
2019-04-26T11:24:41.755Z,32.95
2019-04-26T11:27:11.159Z,31.47
2019-04-26T11:29:40.056Z,30.04
2019-04-26T11:32:08.037Z,30.27
2019-04-26T11:34:36.189Z,30.90
2019-04-26T11:37:04.296Z,30.44
2019-04-26T11:39:36.573Z,31.14
2019-04-26T11:42:04.016Z,30.88
2019-04-26T11:44:32.642Z,31.03
2019-04-26T11:47:03.283Z,31.55
2019-04-26T11:49:30.368Z,31.89
2019-04-26T11:51:58.686Z,31.22
2019-04-26T11:54:28.085Z,31.08
2019-04-26T11:56:55.972Z,30.73
2019-04-26T11:59:27.084Z,30.66
2019-04-26T12:01:54.195Z,30.57
2019-04-26T12:04:49.475Z,29.49
2019-04-26T12:07:23.597Z,29.87
2019-04-26T12:09:53.264Z,29.94
2019-04-26T12:12:21.158Z,29.58
2019-04-26T12:14:49.090Z,30.11
2019-04-26T12:17:17.159Z,29.69
2019-04-26T12:19:48.174Z,29.26
2019-04-26T12:22:14.960Z,29.20
2019-04-26T12:24:42.827Z,29.48
2019-04-26T12:27:10.924Z,29.53
2019-04-26T12:29:39.046Z,28.87
2019-04-26T12:32:06.862Z,28.88
2019-04-26T12:34:37.534Z,28.65
2019-04-26T12:37:05.367Z,28.98
2019-04-26T12:39:36.743Z,28.14
2019-04-26T12:42:03.885Z,29.42
2019-04-26T12:44:42.308Z,29.12
2019-04-26T12:47:17.430Z,29.27
2019-04-26T12:49:45.310Z,29.81
2019-04-26T12:52:13.337Z,29.44
2019-04-26T12:54:43.005Z,29.69
2019-04-26T12:57:11.257Z,29.76
2019-04-26T12:59:44.462Z,29.77
2019-04-26T13:02:08.968Z,29.61
2019-04-26T13:04:40.617Z,30.09
2019-04-26T13:07:23.891Z,29.75
2019-04-26T13:10:26.476Z,29.42
2019-04-26T13:13:07.861Z,30.04
2019-04-26T13:16:08.640Z,29.25
2019-04-26T13:18:36.663Z,29.53
2019-04-26T13:21:04.746Z,29.46
2019-04-26T13:23:32.787Z,28.81
2019-04-26T13:26:01.538Z,28.63
2019-04-26T13:28:31.311Z,28.59
2019-04-26T13:31:01.985Z,28.63
2019-04-26T13:33:29.187Z,28.56
2019-04-26T13:36:04.621Z,28.55
2019-04-26T13:38:27.505Z,28.60
2019-04-26T13:40:55.565Z,28.30
2019-04-26T13:43:27.120Z,27.96
2019-04-26T13:46:15.801Z,28.13
2019-04-26T13:49:19.383Z,28.02
2019-04-26T13:51:47.417Z,27.47
2019-04-26T13:54:16.612Z,27.94
2019-04-26T13:56:45.128Z,27.98
2019-04-26T13:59:13.170Z,28.09
2019-04-26T14:01:41.366Z,27.83
2019-04-26T14:04:09.368Z,27.66
2019-04-26T14:06:37.282Z,27.80
2019-04-26T14:09:07.848Z,27.86
2019-04-26T14:11:43.471Z,27.56
2019-04-26T14:14:11.505Z,27.77
2019-04-26T14:16:40.106Z,27.84
2019-04-26T14:19:14.697Z,27.27
2019-04-26T14:21:38.291Z,27.55
2019-04-26T14:24:28.235Z,28.22
2019-04-26T14:26:59.600Z,28.41
2019-04-26T14:29:30.936Z,28.13
2019-04-26T14:31:57.422Z,28.02
2019-04-26T14:34:25.373Z,28.18
2019-04-26T14:37:05.902Z,28.24
2019-04-26T14:39:35.136Z,28.17
2019-04-26T14:41:57.054Z,28.13
2019-04-26T14:44:22.655Z,27.58
2019-04-26T14:46:53.237Z,27.61
2019-04-26T14:49:23.396Z,27.58
2019-04-26T14:51:51.152Z,27.82
2019-04-26T14:54:20.131Z,27.04
2019-04-26T14:56:52.327Z,27.67
2019-04-26T14:59:39.334Z,28.10
2019-04-26T15:02:20.530Z,28.17
2019-04-26T15:04:53.751Z,27.76
2019-04-26T15:07:22.251Z,27.90
2019-04-26T15:09:50.396Z,28.08
2019-04-26T15:12:19.214Z,28.09
2019-04-26T15:14:49.396Z,28.10
2019-04-26T15:17:20.111Z,28.29
2019-04-26T15:19:47.323Z,28.16
2019-04-26T15:22:15.599Z,28.14
2019-04-26T15:24:44.343Z,27.94
2019-04-26T15:27:12.311Z,28.50
2019-04-26T15:29:40.140Z,28.52
2019-04-26T15:32:08.051Z,28.67
2019-04-26T15:34:36.091Z,28.59
2019-04-26T15:37:04.946Z,29.14
2019-04-26T15:39:42.381Z,29.42
2019-04-26T15:42:32.008Z,29.07
2019-04-26T15:45:25.015Z,28.61
2019-04-26T15:48:09.952Z,28.99
2019-04-26T15:50:50.145Z,29.07
2019-04-26T15:53:14.664Z,29.12
2019-04-26T15:55:43.552Z,29.14
2019-04-26T15:58:12.260Z,28.96
2019-04-26T16:00:40.376Z,29.00
2019-04-26T16:03:08.506Z,28.65
2019-04-26T16:05:36.508Z,28.82
2019-04-26T16:08:04.730Z,29.11
2019-04-26T16:10:36.791Z,29.22
2019-04-26T16:13:16.201Z,28.95
2019-04-26T16:15:32.877Z,29.18
2019-04-26T16:18:03.863Z,28.96
2019-04-26T16:20:33.118Z,28.93
2019-04-26T16:23:06.173Z,29.19
2019-04-26T16:25:34.434Z,29.38
2019-04-26T16:28:19.031Z,29.59
2019-04-26T16:31:06.692Z,30.06
2019-04-26T16:33:35.623Z,30.46
2019-04-26T16:36:06.177Z,30.88
2019-04-26T16:38:35.059Z,31.49
2019-04-26T16:41:03.544Z,31.76
2019-04-26T16:43:39.502Z,31.93
2019-04-26T16:46:02.336Z,32.32
2019-04-26T16:48:30.595Z,32.55
2019-04-26T16:51:00.905Z,32.85
2019-04-26T16:53:43.875Z,32.93
2019-04-26T16:55:58.269Z,33.38
2019-04-26T16:58:31.057Z,33.65
2019-04-26T17:00:58.105Z,34.02
2019-04-26T17:03:26.364Z,34.15
2019-04-26T17:06:04.774Z,34.36
2019-04-26T17:08:24.574Z,34.69
2019-04-26T17:10:56.760Z,34.80
2019-04-26T17:13:23.936Z,35.11
2019-04-26T17:15:58.323Z,35.30
2019-04-26T17:18:27.112Z,35.53
2019-04-26T17:20:53.896Z,35.83
2019-04-26T17:23:40.162Z,36.05
2019-04-26T17:26:36.460Z,36.23
2019-04-26T17:29:03.718Z,36.50
2019-04-26T17:31:33.865Z,36.49
2019-04-26T17:34:03.537Z,36.69
2019-04-26T17:36:34.328Z,36.82
2019-04-26T17:39:01.932Z,37.12
2019-04-26T17:41:31.035Z,37.30
2019-04-26T17:44:08.277Z,37.63
2019-04-26T17:46:29.336Z,37.81
2019-04-26T17:48:57.272Z,38.11
2019-04-26T17:51:25.325Z,38.18
2019-04-26T17:54:20.387Z,38.25
2019-04-26T17:56:26.107Z,38.08
2019-04-26T17:58:54.882Z,38.60
2019-04-26T18:01:42.131Z,39.36
2019-04-26T18:03:55.708Z,39.15
2019-04-26T18:06:29.471Z,39.03
2019-04-26T18:08:55.220Z,38.95
2019-04-26T18:11:25.050Z,38.97
2019-04-26T18:13:53.365Z,39.13
2019-04-26T18:16:22.383Z,39.32
2019-04-26T18:19:12.765Z,39.37
2019-04-26T18:21:49.519Z,39.65
2019-04-26T18:24:18.485Z,39.69
2019-04-26T18:26:46.447Z,39.80
2019-04-26T18:29:14.495Z,39.76
2019-04-26T18:31:43.811Z,39.95
2019-04-26T18:34:12.808Z,40.22
2019-04-26T18:36:42.918Z,40.15
2019-04-26T18:39:11.338Z,40.45
2019-04-26T18:41:39.349Z,40.77
2019-04-26T18:44:07.375Z,40.66
2019-04-26T18:47:00.368Z,40.89
2019-04-26T18:49:28.923Z,41.18
2019-04-26T18:51:56.730Z,41.34
2019-04-26T18:54:29.983Z,41.21
2019-04-26T18:56:59.655Z,41.45
2019-04-26T18:59:28.008Z,41.44
2019-04-26T19:01:56.114Z,41.35
2019-04-26T19:04:24.102Z,41.36
2019-04-26T19:06:54.128Z,41.12
2019-04-26T19:09:24.742Z,41.18
2019-04-26T19:11:56.017Z,40.88
2019-04-26T19:15:03.128Z,41.02
2019-04-26T19:17:35.400Z,41.54
2019-04-26T19:20:20.109Z,41.37
2019-04-26T19:22:55.947Z,41.39
2019-04-26T19:25:25.504Z,41.68
2019-04-26T19:27:54.061Z,41.71
2019-04-26T19:30:22.448Z,41.57
2019-04-26T19:32:53.590Z,41.66
2019-04-26T19:35:21.941Z,41.58
2019-04-26T19:37:51.809Z,41.70
2019-04-26T19:40:22.767Z,41.82
2019-04-26T19:42:55.372Z,41.78
2019-04-26T19:45:45.891Z,41.82
2019-04-26T19:48:20.656Z,41.95
2019-04-26T19:50:53.279Z,41.93
2019-04-26T19:53:42.355Z,42.02
2019-04-26T19:56:31.409Z,42.02
2019-04-26T19:58:59.917Z,42.12
2019-04-26T20:01:28.020Z,42.16
2019-04-26T20:03:56.711Z,42.17
2019-04-26T20:06:26.794Z,42.17
2019-04-26T20:08:54.689Z,42.27
2019-04-26T20:11:22.738Z,42.38
2019-04-26T20:13:51.737Z,42.52
2019-04-26T20:16:22.631Z,42.58
2019-04-26T20:18:52.326Z,42.58
2019-04-26T20:21:21.813Z,42.69
2019-04-26T20:23:52.161Z,42.91
2019-04-26T20:26:20.025Z,43.28
2019-04-26T20:28:48.388Z,43.42
2019-04-26T20:31:25.159Z,43.50
2019-04-26T20:33:53.329Z,43.42
2019-04-26T20:36:22.543Z,43.45
2019-04-26T20:38:52.185Z,43.53
2019-04-26T20:41:21.961Z,43.74
2019-04-26T20:44:04.299Z,43.77
2019-04-26T20:46:25.085Z,44.22
2019-04-26T20:48:53.427Z,44.00
2019-04-26T20:51:22.524Z,44.02
2019-04-26T20:53:52.065Z,44.08
2019-04-26T20:56:22.370Z,44.13
2019-04-26T20:58:52.275Z,44.16
2019-04-26T21:01:22.227Z,44.18
2019-04-26T21:03:51.721Z,44.29
2019-04-26T21:06:22.227Z,44.29
2019-04-26T21:08:53.767Z,44.29
2019-04-26T21:11:21.832Z,44.49
2019-04-26T21:13:51.790Z,44.76
2019-04-26T21:16:20.006Z,45.12
2019-04-26T21:18:47.967Z,45.27
2019-04-26T21:21:16.613Z,45.44
2019-04-26T21:23:46.539Z,45.64
2019-04-26T21:26:28.364Z,45.69
2019-04-26T21:29:24.331Z,45.75
2019-04-26T21:32:09.776Z,45.91
2019-04-26T21:34:39.223Z,47.39
2019-04-26T21:37:43.095Z,48.87
2019-04-26T21:40:25.085Z,48.82
2019-04-26T21:42:55.275Z,49.16
2019-04-26T21:45:28.412Z,50.09
2019-04-26T21:47:51.800Z,50.26
2019-04-26T21:50:19.953Z,50.60
2019-04-26T21:52:47.949Z,52.01
2019-04-26T21:55:16.701Z,53.18
2019-04-26T21:57:44.680Z,52.94
2019-04-26T22:00:35.231Z,53.22
2019-04-26T22:03:03.778Z,52.99
2019-04-26T22:05:35.081Z,53.84
2019-04-26T22:08:03.444Z,54.67
2019-04-26T22:10:43.684Z,54.64
2019-04-26T22:13:11.473Z,54.52
2019-04-26T22:16:30.604Z,54.92
2019-04-26T22:19:14.602Z,55.52
2019-04-26T22:21:50.258Z,56.15
2019-04-26T22:24:23.427Z,55.44
2019-04-26T22:26:53.124Z,54.96
2019-04-26T22:29:22.893Z,55.53
2019-04-26T22:31:51.078Z,55.76
2019-04-26T22:34:18.964Z,55.64
2019-04-26T22:36:46.913Z,55.23
2019-04-26T22:39:18.483Z,55.18
2019-04-26T22:41:46.529Z,55.31
2019-04-26T22:44:26.417Z,55.43
2019-04-26T22:47:03.655Z,55.02
2019-04-26T22:49:29.289Z,56.10
2019-04-26T22:51:57.332Z,56.99
2019-04-26T22:54:25.228Z,57.27
2019-04-26T22:56:53.799Z,58.29
2019-04-26T22:59:22.918Z,58.19
2019-04-26T23:01:53.418Z,58.30
2019-04-26T23:04:23.721Z,58.32
2019-04-26T23:06:51.385Z,58.02
2019-04-26T23:09:20.760Z,58.61
2019-04-26T23:11:55.089Z,58.32
2019-04-26T23:14:33.346Z,59.46
2019-04-26T23:17:20.987Z,59.15
2019-04-26T23:19:57.378Z,58.30
2019-04-26T23:22:40.032Z,57.59
2019-04-26T23:25:08.075Z,58.73
2019-04-26T23:27:35.941Z,59.60
2019-04-26T23:30:04.102Z,59.78
2019-04-26T23:32:33.791Z,59.16
2019-04-26T23:35:02.902Z,59.28
2019-04-26T23:37:32.415Z,60.74
2019-04-26T23:40:00.375Z,62.00
2019-04-26T23:42:28.231Z,60.99
2019-04-26T23:44:56.110Z,61.49
2019-04-26T23:47:25.662Z,61.32
2019-04-26T23:49:57.034Z,61.76
2019-04-26T23:52:25.194Z,62.11
2019-04-26T23:54:53.072Z,62.14
2019-04-26T23:57:20.880Z,61.83
2019-04-26T23:59:51.050Z,61.59
